Time,TemperatureF,DewpointF,PressureIn,WindDirection,WindDirectionDegrees,WindSpeedMPH,WindSpeedGustMPH,Humidity,HourlyPrecipIn,Conditions,Clouds,dailyrainin,SoftwareType,DateUTC
2013-12-12 00:01:00,25.1,14.3,30.14,West,281,1.2,1.2,63,0.00,CLR,CLR,0.00,WeatherDisplay:10.36,2013-12-12 05:01:00,
2013-12-12 00:02:00,25.1,14.3,30.14,West,281,1.2,1.2,63,0.00,CLR,CLR,0.00,WeatherDisplay:10.36,2013-12-12 05:02:00,
2013-12-12 00:07:00,25.1,14.6,30.14,West,281,1.2,0.0,64,0.00,CLR,CLR,0.00,WeatherDisplay:10.36,2013-12-12 05:07:00,
2013-12-12 00:12:00,25.0,14.5,30.14,West,281,0.0,0.0,64,0.00,CLR,CLR,0.00,WeatherDisplay:10.36,2013-12-12 05:12:00,
2013-12-12 00:17:00,24.8,14.3,30.14,West,281,1.2,0.0,64,0.00,CLR,CLR,0.00,WeatherDisplay:10.36,2013-12-12 05:17:00,
2013-12-12 00:22:00,24.8,14.7,30.14,SSW,210,4.0,4.0,65,0.00,CLR,CLR,0.00,WeatherDisplay:10.36,2013-12-12 05:22:00,
2013-12-12 00:27:00,24.7,14.6,30.14,SSW,210,1.2,0.0,65,0.00,CLR,CLR,0.00,WeatherDisplay:10.36,2013-12-12 05:27:00,
2013-12-12 00:32:00,24.5,14.4,30.14,SSW,210,1.2,0.0,65,0.00,CLR,CLR,0.00,WeatherDisplay:10.36,2013-12-12 05:32:00,
2013-12-12 00:37:00,24.4,14.3,30.14,SSW,210,0.0,0.0,65,0.00,CLR,CLR,0.00,WeatherDisplay:10.36,2013-12-12 05:37:00,
2013-12-12 00:42:00,24.4,14.7,30.14,SSW,210,1.0,0.0,66,0.00,CLR,CLR,0.00,WeatherDisplay:10.36,2013-12-12 05:42:00,
2013-12-12 00:47:00,24.2,14.5,30.14,SSW,210,1.0,0.0,66,0.00,CLR,CLR,0.00,WeatherDisplay:10.36,2013-12-12 05:47:00,
2013-12-12 00:52:00,24.1,14.4,30.14,SSW,210,1.2,1.2,66,0.00,CLR,CLR,0.00,WeatherDisplay:10.36,2013-12-12 05:52:00,
2013-12-12 00:57:00,24.1,14.4,30.14,SSW,210,1.2,1.2,66,0.00,CLR,CLR,0.00,WeatherDisplay:10.36,2013-12-12 05:57:00,
2013-12-12 01:02:00,24.1,14.0,30.14,SSW,210,2.3,2.3,65,0.00,CLR,CLR,0.00,WeatherDisplay:10.36,2013-12-12 06:02:00,
2013-12-12 01:07:00,24.2,14.1,30.14,WSW,255,2.3,2.3,65,0.00,CLR,CLR,0.00,WeatherDisplay:10.36,2013-12-12 06:07:00,
2013-12-12 01:12:00,24.4,14.3,30.14,West,262,3.5,3.5,65,0.00,CLR,CLR,0.00,WeatherDisplay:10.36,2013-12-12 06:12:00,
2013-12-12 01:17:00,24.5,14.1,30.15,West,263,2.0,2.0,64,0.00,CLR,CLR,0.00,WeatherDisplay:10.36,2013-12-12 06:17:00,
2013-12-12 01:22:00,24.7,14.2,30.15,West,263,1.2,1.2,64,0.00,CLR,CLR,0.00,WeatherDisplay:10.36,2013-12-12 06:22:00,
2013-12-12 01:27:00,24.5,14.1,30.15,West,263,1.0,1.0,64,0.00,CLR,CLR,0.00,WeatherDisplay:10.36,2013-12-12 06:27:00,
2013-12-12 01:32:00,24.5,14.1,30.15,WSW,248,2.3,2.3,64,0.00,CLR,CLR,0.00,WeatherDisplay:10.36,2013-12-12 06:32:00,
2013-12-12 01:37:00,24.5,14.1,30.15,WNW,290,2.3,2.3,64,0.00,CLR,CLR,0.00,WeatherDisplay:10.36,2013-12-12 06:37:00,
2013-12-12 01:42:00,24.5,13.7,30.15,NNW,330,3.5,3.5,63,0.00,CLR,CLR,0.00,WeatherDisplay:10.36,2013-12-12 06:42:00,
2013-12-12 01:45:00,24.7,13.5,30.15,WNW,295,3.5,3.5,62,0.00,CLR,CLR,0.00,WeatherDisplay:10.36,2013-12-12 06:45:00,
2013-12-12 01:47:00,24.7,13.5,30.15,WNW,295,3.5,3.5,62,0.00,CLR,CLR,0.00,WeatherDisplay:10.36,2013-12-12 06:47:00,
2013-12-12 01:52:00,24.7,13.5,30.15,WNW,295,3.5,3.5,62,0.00,CLR,CLR,0.00,WeatherDisplay:10.36,2013-12-12 06:52:00,
2013-12-12 02:51:00,24.7,13.5,30.15,WNW,295,2.3,2.3,62,0.00,CLR,CLR,0.00,WeatherDisplay:10.36,2013-12-12 07:51:00,
2013-12-12 02:56:00,23.9,13.5,30.17,NNW,327,2.3,2.3,64,0.00,CLR,CLR,0.00,WeatherDisplay:10.36,2013-12-12 07:56:00,
2013-12-12 03:01:00,23.9,13.5,30.17,NNW,327,2.3,2.3,64,0.00,CLR,CLR,0.00,WeatherDisplay:10.36,2013-12-12 08:01:00,
2013-12-12 03:55:00,23.9,13.5,30.17,NNW,327,2.3,2.3,64,0.00,CLR,CLR,0.00,WeatherDisplay:10.36,2013-12-12 08:55:00,
2013-12-12 05:03:00,21.4,8.5,30.20,NW,318,3.5,3.5,57,0.00,CLR,CLR,0.00,WeatherDisplay:10.36,2013-12-12 10:03:00,
2013-12-12 05:08:00,21.4,7.7,30.20,WNW,302,4.0,4.0,55,0.00,CLR,CLR,0.00,WeatherDisplay:10.36,2013-12-12 10:08:00,
2013-12-12 05:13:00,21.6,7.9,30.20,NW,308,2.3,2.3,55,0.00,CLR,CLR,0.00,WeatherDisplay:10.36,2013-12-12 10:13:00,
2013-12-12 05:18:00,21.4,7.3,30.20,NW,309,3.5,3.5,54,0.00,CLR,CLR,0.00,WeatherDisplay:10.36,2013-12-12 10:18:00,
2013-12-12 05:23:00,21.4,7.3,30.20,NW,319,2.3,2.3,54,0.00,CLR,CLR,0.00,WeatherDisplay:10.36,2013-12-12 10:23:00,
2013-12-12 05:28:00,21.3,7.2,30.20,NW,323,2.3,2.3,54,0.00,CLR,CLR,0.00,WeatherDisplay:10.36,2013-12-12 10:28:00,
2013-12-12 05:33:00,21.3,7.2,30.20,NNW,338,2.3,2.3,54,0.00,CLR,CLR,0.00,WeatherDisplay:10.36,2013-12-12 10:33:00,
2013-12-12 05:38:00,21.1,7.0,30.20,NW,307,3.5,3.5,54,0.00,CLR,CLR,0.00,WeatherDisplay:10.36,2013-12-12 10:38:00,
2013-12-12 05:43:00,21.1,6.6,30.20,NNW,337,3.0,3.0,53,0.00,CLR,CLR,0.00,WeatherDisplay:10.36,2013-12-12 10:43:00,
2013-12-12 05:48:00,21.0,6.5,30.20,NW,311,2.3,2.3,53,0.00,CLR,CLR,0.00,WeatherDisplay:10.36,2013-12-12 10:48:00,
2013-12-12 05:53:00,21.0,6.9,30.20,WNW,293,2.3,2.3,54,0.00,CLR,CLR,0.00,WeatherDisplay:10.36,2013-12-12 10:53:00,
2013-12-12 05:58:00,20.8,6.3,30.20,NNW,328,3.5,3.5,53,0.00,CLR,CLR,0.00,WeatherDisplay:10.36,2013-12-12 10:58:00,
2013-12-12 06:03:00,20.8,5.9,30.20,NW,312,3.5,3.5,52,0.00,CLR,CLR,0.00,WeatherDisplay:10.36,2013-12-12 11:03:00,
2013-12-12 06:08:00,20.8,5.1,30.21,NW,312,4.6,4.6,50,0.00,CLR,CLR,0.00,WeatherDisplay:10.36,2013-12-12 11:08:00,
2013-12-12 06:13:00,21.0,4.8,30.20,NNW,327,4.0,4.0,49,0.00,CLR,CLR,0.00,WeatherDisplay:10.36,2013-12-12 11:13:00,
2013-12-12 06:18:00,21.0,4.8,30.22,NNW,329,2.3,2.3,49,0.00,CLR,CLR,0.00,WeatherDisplay:10.36,2013-12-12 11:18:00,
2013-12-12 06:23:00,21.0,4.4,30.22,NNW,335,3.5,3.5,48,0.00,CLR,CLR,0.00,WeatherDisplay:10.36,2013-12-12 11:23:00,
2013-12-12 06:28:00,21.0,4.4,30.22,NNW,329,5.8,5.8,48,0.00,CLR,CLR,0.00,WeatherDisplay:10.36,2013-12-12 11:28:00,
2013-12-12 06:33:00,21.0,4.4,30.22,WNW,302,3.5,3.5,48,0.00,CLR,CLR,0.00,WeatherDisplay:10.36,2013-12-12 11:33:00,
2013-12-12 06:38:00,20.8,4.2,30.22,NW,312,3.5,3.5,48,0.00,CLR,CLR,0.00,WeatherDisplay:10.36,2013-12-12 11:38:00,
2013-12-12 06:43:00,20.6,4.0,30.23,WNW,299,2.3,2.3,48,0.00,CLR,CLR,0.00,WeatherDisplay:10.36,2013-12-12 11:43:00,
2013-12-12 06:48:00,20.5,4.3,30.23,NW,309,3.5,3.5,49,0.00,CLR,CLR,0.00,WeatherDisplay:10.36,2013-12-12 11:48:00,
2013-12-12 06:53:00,20.5,3.9,30.23,NW,322,3.5,3.5,48,0.00,CLR,CLR,0.00,WeatherDisplay:10.36,2013-12-12 11:53:00,
2013-12-12 06:58:00,20.5,3.9,30.23,NW,316,3.5,3.5,48,0.00,CLR,CLR,0.00,WeatherDisplay:10.36,2013-12-12 11:58:00,
2013-12-12 07:03:00,20.3,4.2,30.24,NNW,336,3.5,3.5,49,0.00,CLR,CLR,0.00,WeatherDisplay:10.36,2013-12-12 12:03:00,
2013-12-12 07:08:00,20.3,4.6,30.24,NNW,336,2.3,2.3,50,0.00,CLR,CLR,0.00,WeatherDisplay:10.36,2013-12-12 12:08:00,
2013-12-12 07:13:00,20.2,4.1,30.24,NNW,340,3.5,3.5,49,0.00,CLR,CLR,0.00,WeatherDisplay:10.36,2013-12-12 12:13:00,
2013-12-12 07:18:00,20.2,4.1,30.23,NNW,340,1.2,0.0,49,0.00,CLR,CLR,0.00,WeatherDisplay:10.36,2013-12-12 12:18:00,
2013-12-12 07:23:00,20.0,3.9,30.24,NNW,329,2.3,2.3,49,0.00,CLR,CLR,0.00,WeatherDisplay:10.36,2013-12-12 12:23:00,
2013-12-12 07:28:00,20.0,3.9,30.24,NNW,344,1.2,1.2,49,0.00,CLR,CLR,0.00,WeatherDisplay:10.36,2013-12-12 12:28:00,
2013-12-12 07:33:00,19.9,5.1,30.24,NNW,344,1.2,1.2,52,0.00,CLR,CLR,0.00,WeatherDisplay:10.36,2013-12-12 12:33:00,
2013-12-12 07:38:00,19.7,4.5,30.24,West,263,2.3,2.3,51,0.00,CLR,CLR,0.00,WeatherDisplay:10.36,2013-12-12 12:38:00,
2013-12-12 07:43:00,19.5,4.3,30.24,NNW,343,3.0,3.0,51,0.00,CLR,CLR,0.00,WeatherDisplay:10.36,2013-12-12 12:43:00,
2013-12-12 07:48:00,19.5,4.7,30.24,NNW,344,2.3,2.3,52,0.00,CLR,CLR,0.00,WeatherDisplay:10.36,2013-12-12 12:48:00,
2013-12-12 07:53:00,19.4,4.2,30.24,NNW,344,3.5,3.5,51,0.00,CLR,CLR,0.00,WeatherDisplay:10.36,2013-12-12 12:53:00,
2013-12-12 07:58:00,19.5,4.7,30.25,West,270,2.3,2.3,52,0.00,CLR,CLR,0.00,WeatherDisplay:10.36,2013-12-12 12:58:00,
2013-12-12 08:03:00,19.5,4.3,30.25,West,275,2.3,2.3,51,0.00,CLR,CLR,0.00,WeatherDisplay:10.36,2013-12-12 13:03:00,
2013-12-12 08:08:00,19.7,4.5,30.25,WNW,285,2.3,2.3,51,0.00,CLR,CLR,0.00,WeatherDisplay:10.36,2013-12-12 13:08:00,
2013-12-12 08:13:00,19.7,4.5,30.25,West,273,3.5,3.5,51,0.00,CLR,CLR,0.00,WeatherDisplay:10.36,2013-12-12 13:13:00,
2013-12-12 08:18:00,19.9,4.2,30.25,NW,314,2.3,2.3,50,0.00,CLR,CLR,0.00,WeatherDisplay:10.36,2013-12-12 13:18:00,
2013-12-12 08:23:00,20.0,4.3,30.25,West,264,2.3,2.3,50,0.00,CLR,CLR,0.00,WeatherDisplay:10.36,2013-12-12 13:23:00,
2013-12-12 08:28:00,20.0,4.3,30.26,NW,320,3.5,3.5,50,0.00,CLR,CLR,0.00,WeatherDisplay:10.36,2013-12-12 13:28:00,
2013-12-12 08:33:00,20.0,4.3,30.26,NW,318,2.3,2.3,50,0.00,CLR,CLR,0.00,WeatherDisplay:10.36,2013-12-12 13:33:00,
2013-12-12 08:38:00,20.0,3.4,30.27,NNW,338,4.6,4.6,48,0.00,CLR,CLR,0.00,WeatherDisplay:10.36,2013-12-12 13:38:00,
2013-12-12 08:43:00,20.2,4.1,30.27,NNW,338,2.3,2.3,49,0.00,CLR,CLR,0.00,WeatherDisplay:10.36,2013-12-12 13:43:00,
2013-12-12 08:48:00,20.3,3.7,30.27,NW,326,3.5,3.5,48,0.00,CLR,CLR,0.00,WeatherDisplay:10.36,2013-12-12 13:48:00,
2013-12-12 08:53:00,20.3,3.7,30.26,West,279,2.3,2.3,48,0.00,CLR,CLR,0.00,WeatherDisplay:10.36,2013-12-12 13:53:00,
2013-12-12 08:58:00,20.5,3.9,30.26,WNW,283,2.3,2.3,48,0.00,CLR,CLR,0.00,WeatherDisplay:10.36,2013-12-12 13:58:00,
2013-12-12 09:03:00,20.5,4.3,30.27,WNW,284,3.5,3.5,49,0.00,CLR,CLR,0.00,WeatherDisplay:10.36,2013-12-12 14:03:00,
2013-12-12 09:08:00,20.5,4.3,30.26,NW,305,3.5,3.5,49,0.00,CLR,CLR,0.00,WeatherDisplay:10.36,2013-12-12 14:08:00,
2013-12-12 09:13:00,20.6,4.4,30.26,NW,308,3.5,3.5,49,0.00,CLR,CLR,0.00,WeatherDisplay:10.36,2013-12-12 14:13:00,
2013-12-12 09:18:00,20.8,4.2,30.27,West,270,3.5,3.5,48,0.00,CLR,CLR,0.00,WeatherDisplay:10.36,2013-12-12 14:18:00,
2013-12-12 09:23:00,21.1,4.9,30.27,West,272,2.0,2.0,49,0.00,CLR,CLR,0.00,WeatherDisplay:10.36,2013-12-12 14:23:00,
2013-12-12 09:28:00,21.4,4.7,30.27,WNW,292,3.5,3.5,48,0.00,CLR,CLR,0.00,WeatherDisplay:10.36,2013-12-12 14:28:00,
2013-12-12 09:33:00,21.6,4.9,30.27,West,276,3.5,3.5,48,0.00,CLR,CLR,0.00,WeatherDisplay:10.36,2013-12-12 14:33:00,
2013-12-12 09:38:00,21.6,4.4,30.27,WNW,302,4.0,4.0,47,0.00,CLR,CLR,0.00,WeatherDisplay:10.36,2013-12-12 14:38:00,
2013-12-12 09:43:00,21.6,4.9,30.26,NNW,348,4.0,4.0,48,0.00,CLR,CLR,0.00,WeatherDisplay:10.36,2013-12-12 14:43:00,
2013-12-12 09:48:00,21.6,4.9,30.26,NW,305,4.6,4.6,48,0.00,CLR,CLR,0.00,WeatherDisplay:10.36,2013-12-12 14:48:00,
2013-12-12 09:53:00,21.8,5.1,30.27,NW,310,2.3,2.3,48,0.00,CLR,CLR,0.00,WeatherDisplay:10.36,2013-12-12 14:53:00,
2013-12-12 09:58:00,21.9,4.7,30.27,NW,312,6.9,6.9,47,0.00,CLR,CLR,0.00,WeatherDisplay:10.36,2013-12-12 14:58:00,
2013-12-12 10:03:00,21.9,4.7,30.27,WNW,297,10.4,10.4,47,0.00,CLR,CLR,0.00,WeatherDisplay:10.36,2013-12-12 15:03:00,
2013-12-12 10:08:00,22.1,4.9,30.27,North,355,6.0,6.0,47,0.00,CLR,CLR,0.00,WeatherDisplay:10.36,2013-12-12 15:08:00,
2013-12-12 10:13:00,22.2,5.0,30.27,NW,308,4.6,4.6,47,0.00,CLR,CLR,0.00,WeatherDisplay:10.36,2013-12-12 15:13:00,
2013-12-12 10:18:00,22.5,5.3,30.27,NW,314,4.0,4.0,47,0.00,CLR,CLR,0.00,WeatherDisplay:10.36,2013-12-12 15:18:00,
2013-12-12 10:23:00,22.7,5.5,30.27,WSW,255,4.0,4.0,47,0.00,CLR,CLR,0.00,WeatherDisplay:10.36,2013-12-12 15:23:00,
2013-12-12 10:28:00,22.9,5.6,30.27,SW,216,3.5,3.5,47,0.00,CLR,CLR,0.00,WeatherDisplay:10.36,2013-12-12 15:28:00,
2013-12-12 10:33:00,23.2,5.4,30.27,SW,229,3.5,3.5,46,0.00,CLR,CLR,0.00,WeatherDisplay:10.36,2013-12-12 15:33:00,
2013-12-12 10:38:00,23.3,5.5,30.27,NW,325,4.0,4.0,46,0.00,CLR,CLR,0.00,WeatherDisplay:10.36,2013-12-12 15:38:00,
2013-12-12 10:43:00,23.5,5.2,30.27,WNW,283,3.5,3.5,45,0.00,CLR,CLR,0.00,WeatherDisplay:10.36,2013-12-12 15:43:00,
2013-12-12 10:48:00,23.9,6.6,30.26,WSW,248,3.5,3.5,47,0.00,CLR,CLR,0.00,WeatherDisplay:10.36,2013-12-12 15:48:00,
2013-12-12 10:53:00,24.2,4.9,30.26,WNW,288,4.6,4.6,43,0.00,CLR,CLR,0.00,WeatherDisplay:10.36,2013-12-12 15:53:00,
2013-12-12 10:58:00,24.2,5.4,30.26,WNW,287,4.0,4.0,44,0.00,CLR,CLR,0.00,WeatherDisplay:10.36,2013-12-12 15:58:00,
2013-12-12 11:03:00,24.2,4.9,30.25,NW,307,3.5,3.5,43,0.00,CLR,CLR,0.00,WeatherDisplay:10.36,2013-12-12 16:03:00,
2013-12-12 11:08:00,24.4,4.6,30.25,West,274,3.5,3.5,42,0.00,CLR,CLR,0.00,WeatherDisplay:10.36,2013-12-12 16:08:00,
2013-12-12 11:13:00,24.5,4.1,30.24,WNW,294,3.5,3.5,41,0.00,CLR,CLR,0.00,WeatherDisplay:10.36,2013-12-12 16:13:00,
2013-12-12 11:18:00,24.8,3.9,30.23,WNW,302,3.5,3.5,40,0.00,CLR,CLR,0.00,WeatherDisplay:10.36,2013-12-12 16:18:00,
2013-12-12 11:23:00,24.8,3.9,30.23,North,358,6.9,6.9,40,0.00,CLR,CLR,0.00,WeatherDisplay:10.36,2013-12-12 16:23:00,
2013-12-12 11:28:00,24.7,3.2,30.23,NW,310,6.9,6.9,39,0.00,CLR,CLR,0.00,WeatherDisplay:10.36,2013-12-12 16:28:00,
2013-12-12 11:33:00,24.7,4.3,30.22,WNW,301,3.5,3.5,41,0.00,CLR,CLR,0.00,WeatherDisplay:10.36,2013-12-12 16:33:00,
2013-12-12 11:38:00,24.7,5.3,30.22,WNW,302,4.6,4.6,43,0.00,CLR,CLR,0.00,WeatherDisplay:10.36,2013-12-12 16:38:00,
2013-12-12 11:43:00,24.7,4.8,30.22,NW,312,5.8,5.8,42,0.00,CLR,CLR,0.00,WeatherDisplay:10.36,2013-12-12 16:43:00,
2013-12-12 11:48:00,24.7,4.8,30.21,North,355,10.4,10.4,42,0.00,CLR,CLR,0.00,WeatherDisplay:10.36,2013-12-12 16:48:00,
2013-12-12 11:53:00,24.7,4.8,30.20,NNW,347,6.0,6.0,42,0.00,CLR,CLR,0.00,WeatherDisplay:10.36,2013-12-12 16:53:00,
2013-12-12 11:58:00,24.7,5.3,30.20,WNW,294,3.5,3.5,43,0.00,CLR,CLR,0.00,WeatherDisplay:10.36,2013-12-12 16:58:00,
2013-12-12 12:03:00,25.0,5.1,30.20,NW,321,3.5,3.5,42,0.00,CLR,CLR,0.00,WeatherDisplay:10.36,2013-12-12 17:03:00,
2013-12-12 12:08:00,25.3,5.4,30.20,North,355,5.0,5.0,42,0.00,CLR,CLR,0.00,WeatherDisplay:10.36,2013-12-12 17:08:00,
2013-12-12 12:13:00,25.6,5.1,30.19,SW,226,3.5,3.5,41,0.00,CLR,CLR,0.00,WeatherDisplay:10.36,2013-12-12 17:13:00,
2013-12-12 12:18:00,25.4,5.5,30.19,NNW,333,3.5,3.5,42,0.00,CLR,CLR,0.00,WeatherDisplay:10.36,2013-12-12 17:18:00,
2013-12-12 12:23:00,25.6,5.1,30.19,WNW,293,3.5,3.5,41,0.00,CLR,CLR,0.00,WeatherDisplay:10.36,2013-12-12 17:23:00,
2013-12-12 12:28:00,25.7,5.7,30.19,North,358,3.5,3.5,42,0.00,CLR,CLR,0.00,WeatherDisplay:10.36,2013-12-12 17:28:00,
2013-12-12 12:33:00,25.7,5.7,30.19,West,264,3.5,3.5,42,0.00,CLR,CLR,0.00,WeatherDisplay:10.36,2013-12-12 17:33:00,
2013-12-12 12:38:00,25.8,4.8,30.19,North,352,4.6,4.6,40,0.00,CLR,CLR,0.00,WeatherDisplay:10.36,2013-12-12 17:38:00,
2013-12-12 12:43:00,26.0,4.9,30.19,West,279,4.0,4.0,40,0.00,CLR,CLR,0.00,WeatherDisplay:10.36,2013-12-12 17:43:00,
2013-12-12 12:48:00,25.8,3.6,30.19,North,356,6.0,6.0,38,0.00,CLR,CLR,0.00,WeatherDisplay:10.36,2013-12-12 17:48:00,
2013-12-12 12:53:00,25.7,5.7,30.18,NW,324,3.5,3.5,42,0.00,CLR,CLR,0.00,WeatherDisplay:10.36,2013-12-12 17:53:00,
2013-12-12 12:58:00,25.7,4.7,30.18,WNW,302,3.5,3.5,40,0.00,CLR,CLR,0.00,WeatherDisplay:10.36,2013-12-12 17:58:00,
2013-12-12 13:03:00,25.8,4.2,30.19,West,281,6.9,6.9,39,0.00,CLR,CLR,0.00,WeatherDisplay:10.36,2013-12-12 18:03:00,
2013-12-12 13:08:00,25.8,4.8,30.18,NW,310,5.0,5.0,40,0.00,CLR,CLR,0.00,WeatherDisplay:10.36,2013-12-12 18:08:00,
2013-12-12 13:13:00,25.8,4.2,30.18,NW,325,3.5,3.5,39,0.00,CLR,CLR,0.00,WeatherDisplay:10.36,2013-12-12 18:13:00,
2013-12-12 13:18:00,26.1,3.9,30.18,NW,326,3.5,3.5,38,0.00,CLR,CLR,0.00,WeatherDisplay:10.36,2013-12-12 18:18:00,
2013-12-12 13:23:00,25.8,3.6,30.18,WNW,289,3.5,3.5,38,0.00,CLR,CLR,0.00,WeatherDisplay:10.36,2013-12-12 18:23:00,
2013-12-12 13:28:00,25.8,3.6,30.18,WNW,282,3.5,3.5,38,0.00,CLR,CLR,0.00,WeatherDisplay:10.36,2013-12-12 18:28:00,
2013-12-12 13:33:00,25.8,3.6,30.17,NW,304,4.6,4.6,38,0.00,CLR,CLR,0.00,WeatherDisplay:10.36,2013-12-12 18:33:00,
2013-12-12 13:38:00,25.8,4.2,30.17,WSW,258,3.5,3.5,39,0.00,CLR,CLR,0.00,WeatherDisplay:10.36,2013-12-12 18:38:00,
2013-12-12 13:43:00,25.8,4.2,30.17,WSW,255,3.5,3.5,39,0.00,CLR,CLR,0.00,WeatherDisplay:10.36,2013-12-12 18:43:00,
2013-12-12 13:48:00,25.8,3.6,30.17,West,281,3.5,3.5,38,0.00,CLR,CLR,0.00,WeatherDisplay:10.36,2013-12-12 18:48:00,
2013-12-12 13:53:00,26.0,4.9,30.16,ESE,119,3.5,3.5,40,0.00,CLR,CLR,0.00,WeatherDisplay:10.36,2013-12-12 18:53:00,
2013-12-12 14:01:00,26.1,4.5,30.16,NNW,332,2.3,2.3,39,0.00,CLR,CLR,0.00,WeatherDisplay:10.36,2013-12-12 19:01:00,
2013-12-12 14:06:00,26.1,4.5,30.16,NNW,332,2.3,2.3,39,0.00,CLR,CLR,0.00,WeatherDisplay:10.36,2013-12-12 19:06:00,
2013-12-12 14:11:00,26.1,4.5,30.16,NNW,332,2.3,2.3,39,0.00,CLR,CLR,0.00,WeatherDisplay:10.36,2013-12-12 19:11:00,
2013-12-12 16:11:00,24.7,5.3,30.16,SW,217,7.0,7.0,43,0.00,CLR,CLR,0.00,WeatherDisplay:10.36,2013-12-12 21:11:00,
2013-12-12 16:12:00,24.7,5.3,30.16,SW,217,7.0,7.0,43,0.00,CLR,CLR,0.00,WeatherDisplay:10.36,2013-12-12 21:12:00,
2013-12-12 16:17:00,24.7,5.3,30.16,SW,217,7.0,7.0,43,0.00,CLR,CLR,0.00,WeatherDisplay:10.36,2013-12-12 21:17:00,
2013-12-12 17:17:00,23.5,3.7,30.15,WSW,241,6.9,6.9,42,0.00,CLR,CLR,0.00,WeatherDisplay:10.36,2013-12-12 22:17:00,
2013-12-12 17:22:00,23.5,3.7,30.15,WSW,241,6.9,6.9,42,0.00,CLR,CLR,0.00,WeatherDisplay:10.36,2013-12-12 22:22:00,
2013-12-12 18:22:00,22.2,4.5,30.16,South,189,4.0,4.0,46,0.00,CLR,CLR,0.00,WeatherDisplay:10.36,2013-12-12 23:22:00,
2013-12-12 18:27:00,22.1,4.4,30.16,WSW,250,2.3,2.3,46,0.00,CLR,CLR,0.00,WeatherDisplay:10.36,2013-12-12 23:27:00,
2013-12-12 18:32:00,22.1,4.4,30.16,SSW,194,3.5,3.5,46,0.00,CLR,CLR,0.00,WeatherDisplay:10.36,2013-12-12 23:32:00,
2013-12-12 18:37:00,22.1,4.9,30.16,SW,233,3.5,3.5,47,0.00,CLR,CLR,0.00,WeatherDisplay:10.36,2013-12-12 23:37:00,
2013-12-12 18:42:00,22.1,4.9,30.16,SW,232,3.5,3.5,47,0.00,CLR,CLR,0.00,WeatherDisplay:10.36,2013-12-12 23:42:00,
2013-12-12 18:47:00,22.1,4.4,30.17,SSW,205,8.1,8.1,46,0.00,CLR,CLR,0.00,WeatherDisplay:10.36,2013-12-12 23:47:00,
2013-12-12 18:52:00,22.1,4.9,30.17,WSW,244,3.5,3.5,47,0.00,CLR,CLR,0.00,WeatherDisplay:10.36,2013-12-12 23:52:00,
2013-12-12 18:57:00,22.1,4.9,30.17,WSW,252,3.5,3.5,47,0.00,CLR,CLR,0.00,WeatherDisplay:10.36,2013-12-12 23:57:00,
2013-12-12 19:06:00,22.1,5.4,30.17,SW,231,3.5,3.5,48,0.00,CLR,CLR,0.00,WeatherDisplay:10.36,2013-12-13 00:06:00,
2013-12-12 19:11:00,22.1,5.4,30.17,SW,231,3.5,3.5,48,0.00,CLR,CLR,0.00,WeatherDisplay:10.36,2013-12-13 00:11:00,
2013-12-12 19:16:00,22.1,5.4,30.17,SW,231,3.5,3.5,48,0.00,CLR,CLR,0.00,WeatherDisplay:10.36,2013-12-13 00:16:00,
2013-12-12 21:18:00,20.8,4.2,30.15,WSW,238,6.0,6.0,48,0.00,CLR,CLR,0.00,WeatherDisplay:10.36,2013-12-13 02:18:00,
2013-12-12 21:23:00,20.0,4.3,30.12,SW,217,2.3,2.3,50,0.00,CLR,CLR,0.00,WeatherDisplay:10.36,2013-12-13 02:23:00,
2013-12-12 21:28:00,20.0,4.3,30.12,SW,217,2.3,2.3,50,0.00,CLR,CLR,0.00,WeatherDisplay:10.36,2013-12-13 02:28:00,
2013-12-12 22:25:00,19.5,3.0,30.10,WSW,251,3.0,3.0,48,0.00,CLR,CLR,0.00,WeatherDisplay:10.36,2013-12-13 03:25:00,
2013-12-12 22:30:00,19.5,3.0,30.10,WSW,251,3.0,3.0,48,0.00,CLR,CLR,0.00,WeatherDisplay:10.36,2013-12-13 03:30:00,
2013-12-12 23:29:00,19.5,3.0,30.10,WSW,251,3.0,3.0,48,0.00,CLR,CLR,0.00,WeatherDisplay:10.36,2013-12-13 04:29:00,
2013-12-12 23:31:00,20.2,4.1,30.08,SSW,207,5.8,5.8,49,0.00,CLR,CLR,0.00,WeatherDisplay:10.36,2013-12-13 04:31:00,
2013-12-12 23:34:00,20.2,4.1,30.08,SSW,207,5.8,5.8,49,0.00,CLR,CLR,0.00,WeatherDisplay:10.36,2013-12-13 04:34:00,
2013-12-12 23:39:00,20.2,4.1,30.08,SSW,207,5.8,5.8,49,0.00,CLR,CLR,0.00,WeatherDisplay:10.36,2013-12-13 04:39:00,